createdAt,value
2022-12-15T00:02:19.243Z,15.53
2022-12-15T00:05:04.726Z,18.03
2022-12-15T00:07:49.711Z,13.57
2022-12-15T00:10:35.316Z,18.17
2022-12-15T00:13:20.554Z,16.07
2022-12-15T00:16:05.824Z,18.33
2022-12-15T00:18:52.772Z,17.00
2022-12-15T00:21:37.842Z,19.07
2022-12-15T00:24:23.368Z,17.53
2022-12-15T00:27:08.125Z,19.43
2022-12-15T00:29:53.210Z,16.23
2022-12-15T00:32:38.166Z,20.03
2022-12-15T00:35:25.376Z,20.17
2022-12-15T00:38:10.305Z,20.33
2022-12-15T00:40:38.024Z,17.53
2022-12-15T00:43:05.659Z,20.50
2022-12-15T00:45:47.425Z,26.07
2022-12-15T00:48:15.091Z,20.63
2022-12-15T00:50:53.014Z,19.50
2022-12-15T00:53:38.247Z,22.60
2022-12-15T00:56:23.692Z,23.57
2022-12-15T00:59:08.569Z,26.90
2022-12-15T01:01:54.279Z,29.73
2022-12-15T01:04:39.672Z,23.63
2022-12-15T01:07:26.262Z,23.47
2022-12-15T01:10:11.195Z,19.63
2022-12-15T01:12:56.457Z,22.00
2022-12-15T01:15:41.415Z,23.37
2022-12-15T01:18:26.882Z,20.40
2022-12-15T01:20:57.954Z,21.23
2022-12-15T01:23:27.183Z,20.60
2022-12-15T01:25:55.086Z,22.90
2022-12-15T01:28:22.955Z,20.73
2022-12-15T01:30:50.940Z,21.97
2022-12-15T01:33:19.060Z,20.73
2022-12-15T01:35:46.920Z,25.50
2022-12-15T01:38:14.624Z,24.50
2022-12-15T01:40:50.735Z,23.80
2022-12-15T01:43:19.267Z,21.23
2022-12-15T01:45:48.573Z,23.50
2022-12-15T01:48:19.165Z,24.87
2022-12-15T01:50:47.895Z,28.20
2022-12-15T01:53:16.111Z,25.00
2022-12-15T01:55:48.061Z,25.37
2022-12-15T01:58:18.137Z,35.00
2022-12-15T02:00:45.950Z,28.50
2022-12-15T02:03:14.176Z,30.27
2022-12-15T02:05:42.181Z,25.30
2022-12-15T02:08:10.195Z,27.90
2022-12-15T02:10:42.862Z,26.97
2022-12-15T02:13:16.823Z,30.40
2022-12-15T02:15:47.346Z,41.07
2022-12-15T02:18:18.347Z,18.17
2022-12-15T02:20:49.874Z,22.27
2022-12-15T02:23:47.642Z,21.23
2022-12-15T02:26:31.898Z,16.10
2022-12-15T02:29:10.363Z,12.23
2022-12-15T02:31:50.720Z,13.17
2022-12-15T02:34:23.432Z,7.73
2022-12-15T02:36:52.824Z,7.40
2022-12-15T02:39:20.507Z,12.13
2022-12-15T02:41:49.160Z,6.80
2022-12-15T02:44:19.117Z,8.93
2022-12-15T02:46:55.473Z,7.73
2022-12-15T02:49:27.829Z,8.53
2022-12-15T02:52:01.261Z,9.20
2022-12-15T02:54:36.460Z,9.70
2022-12-15T02:57:06.524Z,8.87
2022-12-15T02:59:39.399Z,8.83
2022-12-15T03:02:09.902Z,7.37
2022-12-15T03:04:37.671Z,9.33
2022-12-15T03:07:07.332Z,8.10
2022-12-15T03:09:35.296Z,9.27
2022-12-15T03:12:03.559Z,8.37
2022-12-15T03:14:31.300Z,9.90
2022-12-15T03:16:59.111Z,9.00
2022-12-15T03:19:28.291Z,11.20
2022-12-15T03:21:55.913Z,8.07
2022-12-15T03:24:23.630Z,8.47
2022-12-15T03:26:51.930Z,8.83
2022-12-15T03:29:19.583Z,8.80
2022-12-15T03:31:49.871Z,8.93
2022-12-15T03:34:18.178Z,12.67
2022-12-15T03:36:47.260Z,12.87
2022-12-15T03:39:14.989Z,11.33
2022-12-15T03:41:42.917Z,13.20
2022-12-15T03:44:10.651Z,11.73
2022-12-15T03:46:38.265Z,13.73
2022-12-15T03:49:06.049Z,12.00
2022-12-15T03:51:33.766Z,10.47
2022-12-15T03:54:02.767Z,10.13
2022-12-15T03:56:30.419Z,8.13
2022-12-15T03:58:58.142Z,9.67
2022-12-15T04:01:28.369Z,10.00
2022-12-15T04:04:00.550Z,9.00
2022-12-15T04:06:29.080Z,11.80
2022-12-15T04:08:56.740Z,10.00
2022-12-15T04:11:25.927Z,10.03
2022-12-15T04:13:53.555Z,13.97
2022-12-15T04:16:21.368Z,10.27
2022-12-15T04:19:10.220Z,13.23
2022-12-15T04:21:36.882Z,14.03
2022-12-15T04:24:22.469Z,14.10
2022-12-15T04:27:09.025Z,12.13
2022-12-15T04:29:54.178Z,10.73
2022-12-15T04:32:39.096Z,9.33
2022-12-15T04:35:24.699Z,14.17
2022-12-15T04:38:09.504Z,12.77
2022-12-15T04:40:55.159Z,10.13
2022-12-15T04:43:42.007Z,10.00
2022-12-15T04:46:26.993Z,11.87
2022-12-15T04:49:11.882Z,10.20
2022-12-15T04:51:57.005Z,13.07
2022-12-15T04:54:41.975Z,13.10
2022-12-15T04:57:26.822Z,12.87
2022-12-15T05:00:13.302Z,13.77
2022-12-15T05:02:58.746Z,14.17
2022-12-15T05:05:43.563Z,13.73
2022-12-15T05:08:28.617Z,12.80
2022-12-15T05:11:15.959Z,15.07
2022-12-15T05:14:01.397Z,13.17
2022-12-15T05:16:48.160Z,11.00
2022-12-15T05:19:33.182Z,15.77
2022-12-15T05:22:18.196Z,15.20
2022-12-15T05:25:03.112Z,15.60
2022-12-15T05:27:48.129Z,13.10
2022-12-15T05:30:33.482Z,14.77
2022-12-15T05:33:05.677Z,15.90
2022-12-15T05:35:33.446Z,18.00
2022-12-15T05:38:01.191Z,14.27
2022-12-15T05:40:28.868Z,17.37
2022-12-15T05:42:59.071Z,18.47
2022-12-15T05:45:26.942Z,18.20
2022-12-15T05:47:55.155Z,17.80
2022-12-15T05:50:24.611Z,16.70
2022-12-15T05:52:52.283Z,15.07
2022-12-15T05:55:20.136Z,12.80
2022-12-15T05:57:51.911Z,16.93
2022-12-15T06:00:19.847Z,19.57
2022-12-15T06:02:47.574Z,13.33
2022-12-15T06:05:17.818Z,14.23
2022-12-15T06:07:46.920Z,14.90
2022-12-15T06:10:14.758Z,13.93
2022-12-15T06:12:42.415Z,16.43
2022-12-15T06:15:10.453Z,16.17
2022-12-15T06:17:38.126Z,14.73
2022-12-15T06:20:06.188Z,16.23
2022-12-15T06:22:33.837Z,17.37
2022-12-15T06:25:03.042Z,15.57
2022-12-15T06:27:37.959Z,15.87
2022-12-15T06:30:06.048Z,20.63
2022-12-15T06:32:35.664Z,21.87
2022-12-15T06:35:03.416Z,21.77
2022-12-15T06:37:31.049Z,24.93
2022-12-15T06:39:58.911Z,23.90
2022-12-15T06:42:27.956Z,24.27
2022-12-15T06:44:55.619Z,26.23
2022-12-15T06:47:23.618Z,21.97
2022-12-15T06:49:51.319Z,20.40
2022-12-15T06:52:18.963Z,22.90
2022-12-15T06:54:46.604Z,23.37
2022-12-15T06:57:14.342Z,21.77
2022-12-15T06:59:43.433Z,25.20
2022-12-15T07:02:16.547Z,25.50
2022-12-15T07:04:44.476Z,18.17
2022-12-15T07:07:12.150Z,21.93
2022-12-15T07:09:39.804Z,18.40
2022-12-15T07:12:08.661Z,17.80
2022-12-15T07:14:36.257Z,17.57
2022-12-15T07:17:05.293Z,18.73
2022-12-15T07:19:33.016Z,19.07
2022-12-15T07:22:01.509Z,21.23
2022-12-15T07:24:29.225Z,20.17
2022-12-15T07:26:57.195Z,17.30
2022-12-15T07:29:24.836Z,18.70
2022-12-15T07:31:52.554Z,16.60
2022-12-15T07:34:21.642Z,16.03
2022-12-15T07:36:52.336Z,18.53
2022-12-15T07:39:20.294Z,15.33
2022-12-15T07:41:47.942Z,17.00
2022-12-15T07:44:15.872Z,20.03
2022-12-15T07:46:46.923Z,18.20
2022-12-15T07:49:14.659Z,17.27
2022-12-15T07:51:43.693Z,17.37
2022-12-15T07:54:11.833Z,20.20
2022-12-15T07:56:39.632Z,18.80
2022-12-15T07:59:07.820Z,17.57
2022-12-15T08:01:36.405Z,15.73
2022-12-15T08:04:04.390Z,14.93
2022-12-15T08:06:32.116Z,14.57
2022-12-15T08:09:01.291Z,18.57
2022-12-15T08:11:34.532Z,16.07
2022-12-15T08:14:03.927Z,16.73
2022-12-15T08:16:32.113Z,15.23
2022-12-15T08:18:59.836Z,17.77
2022-12-15T08:21:27.523Z,13.07
2022-12-15T08:23:55.402Z,16.97
2022-12-15T08:26:30.105Z,16.43
2022-12-15T08:29:11.753Z,17.57
2022-12-15T08:31:45.573Z,15.80
2022-12-15T08:34:13.263Z,18.60
2022-12-15T08:36:40.920Z,18.93
2022-12-15T08:39:08.766Z,19.87
2022-12-15T08:41:37.742Z,19.27
2022-12-15T08:44:05.534Z,18.50
2022-12-15T08:46:34.907Z,15.63
2022-12-15T08:49:03.464Z,17.33
2022-12-15T08:51:33.716Z,23.20
2022-12-15T08:56:58.522Z,24.07
2022-12-15T08:59:26.336Z,31.27
2022-12-15T09:01:54.063Z,26.40
2022-12-15T09:04:21.879Z,25.20
2022-12-15T09:06:50.882Z,23.37
2022-12-15T09:09:19.200Z,27.27
2022-12-15T09:11:47.040Z,26.23
2022-12-15T09:14:16.127Z,26.20
2022-12-15T09:16:43.824Z,25.10
2022-12-15T09:19:11.881Z,23.13
2022-12-15T09:21:39.954Z,26.60
2022-12-15T09:24:07.740Z,26.70
2022-12-15T09:26:35.718Z,26.77
2022-12-15T09:29:03.336Z,27.23
2022-12-15T09:31:33.714Z,27.93
2022-12-15T09:34:01.939Z,31.30
2022-12-15T09:36:30.450Z,27.07
2022-12-15T09:38:58.064Z,34.20
2022-12-15T09:41:27.539Z,32.70
2022-12-15T09:43:58.461Z,28.43
2022-12-15T09:46:37.123Z,28.30
2022-12-15T09:49:06.782Z,33.67
2022-12-15T09:51:37.762Z,32.60
2022-12-15T09:54:06.090Z,30.67
2022-12-15T09:56:39.588Z,28.50
2022-12-15T09:59:15.711Z,27.10
2022-12-15T10:01:48.913Z,26.87
2022-12-15T10:04:20.189Z,30.47
2022-12-15T10:06:51.194Z,23.97
2022-12-15T10:09:20.453Z,23.23
2022-12-15T10:11:51.819Z,28.67
2022-12-15T10:14:26.349Z,23.57
2022-12-15T10:17:03.512Z,24.60
2022-12-15T10:19:35.329Z,22.67
2022-12-15T10:22:03.282Z,24.67
2022-12-15T10:25:07.897Z,21.30
2022-12-15T10:27:25.557Z,22.87
2022-12-15T10:29:56.776Z,24.60
2022-12-15T10:32:31.495Z,22.57
2022-12-15T10:34:59.206Z,25.53
2022-12-15T10:37:26.885Z,23.93
2022-12-15T10:39:54.586Z,27.03
2022-12-15T10:42:23.125Z,27.77
2022-12-15T10:44:51.811Z,23.13
2022-12-15T10:47:23.377Z,23.87
2022-12-15T10:49:53.114Z,24.17
2022-12-15T10:52:24.443Z,24.20
2022-12-15T10:54:53.223Z,27.13
2022-12-15T10:57:23.502Z,22.87
2022-12-15T10:59:52.410Z,23.80
2022-12-15T11:02:27.831Z,27.43
2022-12-15T11:04:59.927Z,26.17
2022-12-15T11:07:29.246Z,26.57
2022-12-15T11:10:00.258Z,25.57
2022-12-15T11:12:48.824Z,21.17
2022-12-15T11:18:40.145Z,21.47
2022-12-15T11:21:12.981Z,23.87
2022-12-15T11:23:48.689Z,25.83
2022-12-15T11:26:23.742Z,21.40
2022-12-15T11:28:53.846Z,23.23
2022-12-15T11:31:23.638Z,23.90
2022-12-15T11:33:52.612Z,27.83
2022-12-15T11:36:31.915Z,24.50
2022-12-15T11:39:02.182Z,20.70
2022-12-15T11:41:36.370Z,23.40
2022-12-15T11:44:08.167Z,24.63
2022-12-15T11:46:41.012Z,28.47
2022-12-15T11:49:29.366Z,26.43
2022-12-15T11:52:00.713Z,22.40
2022-12-15T11:54:29.982Z,24.93
2022-12-15T11:57:01.013Z,25.03
2022-12-15T11:59:46.574Z,25.13
2022-12-15T12:02:32.113Z,24.93
2022-12-15T12:05:07.246Z,25.97
2022-12-15T12:07:42.339Z,25.47
2022-12-15T12:10:16.327Z,26.23
2022-12-15T12:12:47.474Z,26.03
2022-12-15T12:15:25.543Z,25.97
2022-12-15T12:17:54.309Z,23.73
2022-12-15T12:20:23.412Z,25.17
2022-12-15T12:22:57.729Z,35.90
2022-12-15T12:25:26.788Z,23.53
2022-12-15T12:27:56.339Z,28.97
2022-12-15T12:30:25.085Z,29.97
2022-12-15T12:32:55.412Z,28.27
2022-12-15T12:35:30.346Z,25.97
2022-12-15T12:38:04.787Z,28.17
2022-12-15T12:40:42.385Z,29.90
2022-12-15T12:43:14.120Z,26.97
2022-12-15T12:45:50.232Z,27.03
2022-12-15T12:48:22.531Z,29.33
2022-12-15T12:50:50.947Z,26.63
2022-12-15T12:53:28.747Z,27.73
2022-12-15T12:55:56.743Z,30.33
2022-12-15T12:58:35.828Z,31.67
2022-12-15T13:01:08.315Z,29.50
2022-12-15T13:03:39.926Z,31.67
2022-12-15T13:06:21.007Z,25.60
2022-12-15T13:08:51.968Z,29.17
2022-12-15T13:11:43.680Z,27.93
2022-12-15T13:20:16.996Z,27.27
2022-12-15T13:22:44.817Z,33.80
2022-12-15T13:25:48.560Z,32.10
2022-12-15T13:28:40.140Z,30.53
2022-12-15T13:31:27.724Z,28.57
2022-12-15T13:34:19.616Z,24.00
2022-12-15T13:36:58.619Z,22.57
2022-12-15T13:39:37.303Z,24.53
2022-12-15T13:42:40.815Z,26.23
2022-12-15T13:45:35.997Z,24.30
2022-12-15T13:48:09.028Z,22.63
2022-12-15T13:50:40.526Z,22.93
2022-12-15T13:53:19.466Z,22.10
2022-12-15T13:55:53.675Z,21.70
2022-12-15T13:58:22.730Z,19.47
2022-12-15T14:00:51.902Z,19.97
2022-12-15T14:03:19.753Z,18.70
2022-12-15T14:05:52.003Z,21.77
2022-12-15T14:08:23.002Z,30.27
2022-12-15T14:10:51.759Z,26.63
2022-12-15T14:13:21.876Z,25.80
2022-12-15T14:15:52.534Z,24.03
2022-12-15T14:18:24.768Z,31.73
2022-12-15T14:20:52.749Z,25.60
2022-12-15T14:23:22.184Z,27.80
2022-12-15T14:25:57.551Z,27.20
2022-12-15T14:28:26.213Z,25.53
2022-12-15T14:30:53.953Z,27.53
2022-12-15T14:33:25.238Z,27.07
2022-12-15T14:35:57.164Z,31.07
2022-12-15T14:38:28.421Z,29.47
2022-12-15T14:40:57.724Z,26.40
2022-12-15T14:43:27.416Z,27.40
2022-12-15T14:45:56.087Z,30.57
2022-12-15T14:48:44.842Z,26.47
2022-12-15T14:51:14.322Z,30.73
2022-12-15T14:53:44.730Z,29.00
2022-12-15T14:56:29.493Z,28.80
2022-12-15T14:59:00.427Z,30.83
2022-12-15T15:01:29.885Z,33.43
2022-12-15T15:03:06.889Z,27.43
2022-12-15T15:03:07.367Z,32.67
2022-12-15T15:03:58.219Z,28.07
2022-12-15T15:06:30.514Z,33.57
2022-12-15T15:09:04.211Z,43.07
2022-12-15T15:11:34.088Z,32.10
2022-12-15T15:14:04.122Z,35.53
2022-12-15T15:16:31.899Z,33.50
2022-12-15T15:19:02.193Z,29.10
2022-12-15T15:21:31.447Z,30.80
2022-12-15T15:24:01.068Z,31.83
2022-12-15T15:26:29.349Z,34.47
2022-12-15T15:28:57.055Z,36.03
2022-12-15T15:31:28.565Z,32.00
2022-12-15T15:33:58.011Z,52.87
2022-12-15T15:36:26.980Z,46.53
2022-12-15T15:38:54.668Z,48.90
2022-12-15T15:41:28.887Z,55.93
2022-12-15T15:43:57.030Z,44.03
2022-12-15T15:46:26.672Z,52.47
2022-12-15T15:48:55.954Z,45.53
2022-12-15T15:51:24.885Z,42.33
2022-12-15T15:53:52.968Z,40.40
2022-12-15T15:56:21.317Z,43.23
2022-12-15T15:58:50.306Z,38.07
2022-12-15T16:01:18.078Z,45.70
2022-12-15T16:03:45.900Z,41.77
2022-12-15T16:06:15.139Z,45.77
2022-12-15T16:08:43.389Z,44.93
2022-12-15T16:11:11.951Z,46.80
2022-12-15T16:13:46.259Z,49.20
2022-12-15T16:16:17.619Z,47.83
2022-12-15T16:18:46.035Z,44.07
2022-12-15T16:21:15.068Z,42.53
2022-12-15T16:23:43.354Z,47.33
2022-12-15T16:26:14.694Z,44.47
2022-12-15T16:28:42.367Z,43.90
2022-12-15T16:31:12.865Z,40.53
2022-12-15T16:33:41.905Z,45.67
2022-12-15T16:36:13.201Z,40.63
2022-12-15T16:38:41.086Z,43.23
2022-12-15T16:41:09.434Z,42.40
2022-12-15T16:43:41.538Z,42.73
2022-12-15T16:46:14.215Z,45.53
2022-12-15T16:48:43.664Z,58.70
2022-12-15T16:51:18.922Z,45.60
2022-12-15T16:53:46.925Z,46.23
2022-12-15T16:56:15.787Z,51.80
2022-12-15T16:58:48.490Z,50.43
2022-12-15T17:01:17.038Z,54.73
2022-12-15T17:03:46.087Z,55.07
2022-12-15T17:06:15.073Z,55.70
2022-12-15T17:08:44.862Z,49.77
2022-12-15T17:11:15.212Z,57.63
2022-12-15T17:13:46.028Z,51.70
2022-12-15T17:16:14.843Z,55.43
2022-12-15T17:18:44.218Z,59.33
2022-12-15T17:21:14.969Z,57.20
2022-12-15T17:23:44.879Z,54.00
2022-12-15T17:26:27.633Z,61.97
2022-12-15T17:28:57.154Z,61.70
2022-12-15T17:31:30.240Z,58.97
2022-12-15T17:34:02.583Z,55.60
2022-12-15T17:36:31.839Z,75.50
2022-12-15T17:39:00.303Z,78.23
2022-12-15T17:41:58.140Z,79.90
2022-12-15T17:44:37.192Z,88.70
2022-12-15T17:47:07.624Z,66.57
2022-12-15T17:49:38.318Z,84.50
2022-12-15T17:52:09.230Z,88.37
2022-12-15T17:54:36.982Z,85.50
2022-12-15T17:57:04.747Z,81.67
2022-12-15T17:59:32.719Z,92.23
2022-12-15T18:02:00.521Z,104.97
2022-12-15T18:04:28.259Z,113.63
2022-12-15T18:07:01.519Z,115.47
2022-12-15T18:09:31.527Z,110.33
2022-12-15T18:11:59.556Z,100.67
2022-12-15T18:14:28.535Z,97.60
2022-12-15T18:16:56.201Z,98.07
2022-12-15T18:19:23.938Z,96.90
2022-12-15T18:21:51.595Z,104.80
2022-12-15T18:24:21.680Z,96.87
2022-12-15T18:26:50.861Z,91.93
2022-12-15T18:29:18.790Z,79.53
2022-12-15T18:31:47.214Z,74.57
2022-12-15T18:34:15.813Z,82.03
2022-12-15T18:36:43.568Z,74.40
2022-12-15T18:39:17.214Z,95.47
2022-12-15T18:41:44.963Z,97.37
2022-12-15T18:44:20.004Z,99.63
2022-12-15T18:46:48.301Z,93.33
2022-12-15T18:49:16.149Z,86.73
2022-12-15T18:51:43.907Z,101.90
2022-12-15T18:54:15.410Z,94.17
2022-12-15T18:56:43.141Z,110.10
2022-12-15T18:59:15.751Z,120.63
2022-12-15T19:01:45.848Z,197.53
2022-12-15T19:04:13.684Z,210.10
2022-12-15T19:06:41.565Z,211.13
2022-12-15T19:09:14.565Z,199.80
2022-12-15T19:12:02.508Z,222.97
2022-12-15T19:14:44.008Z,188.57
2022-12-15T19:17:31.726Z,192.50
2022-12-15T19:20:16.774Z,185.23
2022-12-15T19:22:44.536Z,193.50
2022-12-15T19:25:18.281Z,178.73
2022-12-15T19:27:50.110Z,165.07
2022-12-15T19:30:19.519Z,224.93
2022-12-15T19:32:48.515Z,211.47
2022-12-15T19:35:16.262Z,203.40
2022-12-15T19:37:45.517Z,198.17
2022-12-15T19:40:18.566Z,155.70
2022-12-15T19:42:47.984Z,201.00
2022-12-15T19:45:16.927Z,156.67
2022-12-15T19:47:44.760Z,160.20
2022-12-15T19:50:16.369Z,169.80
2022-12-15T19:52:44.804Z,180.43
2022-12-15T19:55:14.827Z,198.43
2022-12-15T19:57:42.865Z,185.90
2022-12-15T20:00:17.388Z,230.20
2022-12-15T20:02:45.212Z,241.40
2022-12-15T20:05:12.894Z,217.77
2022-12-15T20:07:42.562Z,278.07
2022-12-15T20:10:17.118Z,265.47
2022-12-15T20:12:52.944Z,241.63
2022-12-15T20:15:22.100Z,251.80
2022-12-15T20:17:50.642Z,246.17
2022-12-15T20:20:19.932Z,278.97
2022-12-15T20:22:51.128Z,215.77
2022-12-15T20:25:20.122Z,212.37
2022-12-15T20:27:49.071Z,258.57
2022-12-15T20:30:20.522Z,227.23
2022-12-15T20:32:48.311Z,173.87
2022-12-15T20:35:17.024Z,250.77
2022-12-15T20:37:44.906Z,216.17
2022-12-15T20:40:21.246Z,195.07
2022-12-15T20:42:48.967Z,193.03
2022-12-15T20:45:17.329Z,184.10
2022-12-15T20:47:46.166Z,196.77
2022-12-15T20:50:24.977Z,183.47
2022-12-15T20:52:52.798Z,192.80
2022-12-15T20:55:24.005Z,136.40
2022-12-15T20:57:51.657Z,174.37
2022-12-15T21:00:19.586Z,146.10
2022-12-15T21:02:47.682Z,132.20
2022-12-15T21:05:19.463Z,140.53
2022-12-15T21:07:47.622Z,139.80
2022-12-15T21:10:16.127Z,149.13
2022-12-15T21:12:47.137Z,145.63
2022-12-15T21:15:15.715Z,131.73
2022-12-15T21:17:43.996Z,128.60
2022-12-15T21:20:12.376Z,132.83
2022-12-15T21:22:40.550Z,131.37
2022-12-15T21:25:16.775Z,118.10
2022-12-15T21:27:45.786Z,118.73
2022-12-15T21:30:17.614Z,124.83
2022-12-15T21:32:45.261Z,117.90
2022-12-15T21:35:14.253Z,133.77
2022-12-15T21:37:42.712Z,124.87
2022-12-15T21:40:16.909Z,124.20
2022-12-15T21:42:46.078Z,126.37
2022-12-15T21:45:14.615Z,173.37
2022-12-15T21:47:59.402Z,148.17
2022-12-15T21:50:27.032Z,146.47
2022-12-15T21:52:54.738Z,113.40
2022-12-15T21:55:24.012Z,121.70
2022-12-15T21:57:53.041Z,119.77
2022-12-15T22:00:21.276Z,125.30
2022-12-15T22:02:49.711Z,137.90
2022-12-15T22:05:18.819Z,125.03
2022-12-15T22:07:46.481Z,121.07
2022-12-15T22:10:14.244Z,125.10
2022-12-15T22:12:43.281Z,118.60
2022-12-15T22:15:17.064Z,105.70
2022-12-15T22:17:44.821Z,115.33
2022-12-15T22:20:16.383Z,107.90
2022-12-15T22:22:44.141Z,108.93
2022-12-15T22:25:16.870Z,99.07
2022-12-15T22:27:45.256Z,101.07
2022-12-15T22:30:17.821Z,106.27
2022-12-15T22:32:45.857Z,103.33
2022-12-15T22:35:14.389Z,103.87
2022-12-15T22:37:42.071Z,110.03
2022-12-15T22:40:10.250Z,110.53
2022-12-15T22:42:38.243Z,108.17
2022-12-15T22:45:06.570Z,106.87
2022-12-15T22:47:37.562Z,108.37
2022-12-15T22:50:06.449Z,103.63
2022-12-15T22:52:34.116Z,98.20
2022-12-15T22:55:01.798Z,104.77
2022-12-15T22:57:29.851Z,107.53
2022-12-15T23:00:00.943Z,99.80
2022-12-15T23:02:29.533Z,100.87
2022-12-15T23:04:58.621Z,97.30
2022-12-15T23:07:26.417Z,101.30
2022-12-15T23:10:14.039Z,102.20
2022-12-15T23:12:40.950Z,97.57
2022-12-15T23:15:26.912Z,99.47
2022-12-15T23:17:55.094Z,99.27
2022-12-15T23:20:24.103Z,96.43
2022-12-15T23:22:51.755Z,101.87
2022-12-15T23:25:19.456Z,96.77
2022-12-15T23:27:47.097Z,104.03
2022-12-15T23:30:14.918Z,104.40
2022-12-15T23:32:42.709Z,115.43
2022-12-15T23:35:10.777Z,106.67
2022-12-15T23:37:39.783Z,104.77
2022-12-15T23:40:08.188Z,127.67
2022-12-15T23:42:35.850Z,141.03
2022-12-15T23:45:03.572Z,161.53
2022-12-15T23:47:31.390Z,228.97
2022-12-15T23:49:59.049Z,251.10
2022-12-15T23:52:28.443Z,244.40
2022-12-15T23:54:57.662Z,210.90
2022-12-15T23:57:25.308Z,227.90
2022-12-15T23:59:53.004Z,189.17
